createdAt,value
2023-03-17T00:01:16.317Z,100479.97
2023-03-17T00:06:24.741Z,100477.94
2023-03-17T00:11:28.852Z,100457.59
2023-03-17T00:16:38.018Z,100463.28
2023-03-17T00:21:42.070Z,100448.03
2023-03-17T00:26:46.155Z,100453.47
2023-03-17T00:31:51.454Z,100449.69
2023-03-17T00:36:58.922Z,100445.59
2023-03-17T00:42:02.368Z,100434.47
2023-03-17T00:47:10.797Z,100440.16
2023-03-17T00:52:14.238Z,100433.94
2023-03-17T00:57:18.465Z,100420.72
2023-03-17T01:02:24.207Z,100419.00
2023-03-17T01:07:28.320Z,100409.47
2023-03-17T01:12:33.009Z,100404.19
2023-03-17T01:17:39.379Z,100406.47
2023-03-17T01:22:42.910Z,100409.84
2023-03-17T01:27:47.652Z,100425.84
2023-03-17T01:32:52.743Z,100432.31
2023-03-17T01:37:57.128Z,100437.31
2023-03-17T01:43:04.843Z,100435.06
2023-03-17T01:48:10.005Z,100424.44
2023-03-17T01:53:14.172Z,100408.53
2023-03-17T01:58:20.645Z,100392.03
2023-03-17T02:03:26.040Z,100401.16
2023-03-17T02:08:29.610Z,100386.38
2023-03-17T02:13:34.948Z,100394.09
2023-03-17T02:18:39.760Z,100380.09
2023-03-17T02:23:44.860Z,100380.38
2023-03-17T02:28:48.679Z,100383.41
2023-03-17T02:33:52.170Z,100391.69
2023-03-17T02:38:58.077Z,100407.44
2023-03-17T02:44:01.555Z,100408.28
2023-03-17T02:49:05.694Z,100385.16
2023-03-17T02:54:10.774Z,100397.19
2023-03-17T02:59:14.353Z,100391.72
2023-03-17T03:04:19.062Z,100388.06
2023-03-17T03:09:24.223Z,100372.81
2023-03-17T03:14:27.646Z,100377.72
2023-03-17T03:19:31.079Z,100372.81
2023-03-17T03:24:36.188Z,100372.44
2023-03-17T03:29:40.269Z,100379.16
2023-03-17T03:34:43.708Z,100380.91
2023-03-17T03:39:48.728Z,100383.22
2023-03-17T03:44:52.531Z,100381.81
2023-03-17T03:49:55.929Z,100389.94
2023-03-17T03:55:00.944Z,100380.59
2023-03-17T04:00:05.686Z,100369.78
2023-03-17T04:05:15.715Z,100340.19
2023-03-17T04:10:20.779Z,100322.81
2023-03-17T04:15:24.697Z,100327.41
2023-03-17T04:20:28.620Z,100313.81
2023-03-17T04:25:33.593Z,100321.66
2023-03-17T04:30:37.021Z,100323.28
2023-03-17T04:35:40.700Z,100311.81
2023-03-17T04:40:45.491Z,100323.63
2023-03-17T04:45:48.960Z,100326.53
2023-03-17T04:50:52.445Z,100323.31
2023-03-17T04:55:57.681Z,100317.56
2023-03-17T05:01:02.429Z,100328.84
2023-03-17T05:06:07.081Z,100323.66
2023-03-17T05:11:12.432Z,100305.00
2023-03-17T05:16:16.149Z,100313.31
2023-03-17T05:21:19.565Z,100320.44
2023-03-17T05:26:24.353Z,100312.13
2023-03-17T05:31:27.825Z,100313.22
2023-03-17T05:36:31.985Z,100290.34
2023-03-17T05:41:36.858Z,100291.78
2023-03-17T05:46:40.546Z,100303.34
2023-03-17T05:51:43.909Z,100301.34
2023-03-17T05:56:48.740Z,100283.38
2023-03-17T06:01:52.144Z,100289.75
2023-03-17T06:06:55.549Z,100277.47
2023-03-17T06:12:00.965Z,100284.91
2023-03-17T06:17:04.622Z,100296.13
2023-03-17T06:22:09.259Z,100301.16
2023-03-17T06:27:14.396Z,100302.38
2023-03-17T06:32:20.874Z,100306.22
2023-03-17T06:37:24.674Z,100285.28
2023-03-17T06:42:29.434Z,100290.09
2023-03-17T06:47:34.098Z,100293.03
2023-03-17T06:52:37.655Z,100292.03
2023-03-17T06:57:42.634Z,100290.78
2023-03-17T07:02:46.138Z,100297.25
2023-03-17T07:07:49.622Z,100289.50
2023-03-17T07:12:54.972Z,100286.28
2023-03-17T07:17:58.566Z,100285.31
2023-03-17T07:23:02.270Z,100289.09
2023-03-17T07:28:07.160Z,100278.47
2023-03-17T07:33:11.274Z,100283.13
2023-03-17T07:38:15.065Z,100274.63
2023-03-17T07:43:20.980Z,100279.28
2023-03-17T07:48:24.384Z,100274.25
2023-03-17T07:53:27.814Z,100265.69
2023-03-17T07:58:32.719Z,100272.63
2023-03-17T08:03:37.694Z,100258.41
2023-03-17T08:08:42.729Z,100248.03
2023-03-17T08:13:48.002Z,100242.44
2023-03-17T08:18:51.468Z,100225.19
2023-03-17T08:23:54.924Z,100251.09
2023-03-17T08:28:59.848Z,100253.06
2023-03-17T08:34:04.726Z,100235.34
2023-03-17T08:39:10.453Z,100227.22
2023-03-17T08:44:16.501Z,100220.88
2023-03-17T08:49:23.109Z,100230.09
2023-03-17T08:54:29.918Z,100243.00
2023-03-17T08:59:35.013Z,100235.06
2023-03-17T09:04:40.144Z,100230.03
2023-03-17T09:09:43.855Z,100227.63
2023-03-17T09:14:49.385Z,100228.28
2023-03-17T09:19:53.064Z,100217.88
2023-03-17T09:24:56.980Z,100222.66
2023-03-17T09:30:01.829Z,100208.66
2023-03-17T09:35:06.126Z,100209.97
2023-03-17T09:40:14.239Z,100202.31
2023-03-17T09:45:29.057Z,100211.97
2023-03-17T09:50:39.081Z,100205.59
2023-03-17T09:55:42.575Z,100213.06
2023-03-17T10:00:47.517Z,100214.69
2023-03-17T10:05:51.132Z,100214.44
2023-03-17T10:10:58.032Z,100214.28
2023-03-17T10:16:04.914Z,100214.00
2023-03-17T10:21:10.592Z,100207.44
2023-03-17T10:26:20.309Z,100214.16
2023-03-17T10:31:32.987Z,100218.47
2023-03-17T10:36:38.544Z,100219.00
2023-03-17T10:41:49.615Z,100209.91
2023-03-17T10:46:56.518Z,100189.59
2023-03-17T10:52:00.785Z,100187.47
2023-03-17T10:57:07.340Z,100190.84
2023-03-17T11:02:25.613Z,100190.59
2023-03-17T11:07:38.134Z,100209.13
2023-03-17T11:12:42.396Z,100194.53
2023-03-17T11:17:53.119Z,100197.50
2023-03-17T11:23:02.232Z,100177.06
2023-03-17T11:28:16.969Z,100184.84
2023-03-17T11:33:34.828Z,100180.47
2023-03-17T11:38:39.346Z,100170.69
2023-03-17T11:43:53.174Z,100167.28
2023-03-17T11:49:02.732Z,100151.69
2023-03-17T11:54:12.067Z,100151.63
2023-03-17T11:59:25.770Z,100137.97
2023-03-17T12:04:36.033Z,100133.06
2023-03-17T12:09:42.162Z,100143.50
2023-03-17T12:14:49.727Z,100138.03
2023-03-17T12:20:07.047Z,100150.09
2023-03-17T12:25:16.381Z,100141.72
2023-03-17T12:30:26.016Z,100130.72
2023-03-17T12:35:34.121Z,100124.06
2023-03-17T12:40:43.268Z,100122.94
2023-03-17T12:45:56.850Z,100118.03
2023-03-17T12:51:20.493Z,100106.44
2023-03-17T12:56:27.634Z,100096.50
2023-03-17T13:01:36.027Z,100108.44
2023-03-17T13:06:43.682Z,100102.03
2023-03-17T13:11:48.433Z,100095.25
2023-03-17T13:16:53.320Z,100094.56
2023-03-17T13:22:25.017Z,100084.88
2023-03-17T13:27:52.656Z,100073.19
2023-03-17T13:32:56.991Z,100079.00
2023-03-17T13:38:28.109Z,100076.75
2023-03-17T13:43:49.895Z,100078.88
2023-03-17T13:48:55.313Z,100074.41
2023-03-17T13:54:09.573Z,100070.72
2023-03-17T13:59:14.469Z,100064.88
2023-03-17T14:04:23.066Z,100065.72
2023-03-17T14:09:37.987Z,100055.13
2023-03-17T14:14:49.448Z,100050.97
2023-03-17T14:20:06.303Z,100042.69
2023-03-17T14:25:16.515Z,100052.00
2023-03-17T14:30:22.319Z,100051.59
2023-03-17T14:35:26.331Z,100044.88
2023-03-17T14:40:36.808Z,100042.59
2023-03-17T14:45:49.231Z,100042.44
2023-03-17T14:50:54.908Z,100040.28
2023-03-17T14:56:00.749Z,100031.09
2023-03-17T15:01:06.784Z,100031.88
2023-03-17T15:06:24.551Z,100031.50
2023-03-17T15:11:38.785Z,100027.00
2023-03-17T15:16:43.713Z,100020.28
2023-03-17T15:21:47.235Z,100039.00
2023-03-17T15:26:52.072Z,100023.97
2023-03-17T15:32:00.900Z,100029.16
2023-03-17T15:37:04.440Z,100032.50
2023-03-17T15:42:09.472Z,100033.00
2023-03-17T15:47:15.073Z,100023.75
2023-03-17T15:52:21.605Z,100023.47
2023-03-17T15:57:27.089Z,100021.19
2023-03-17T16:02:32.571Z,100021.69
2023-03-17T16:07:36.068Z,100019.28
2023-03-17T16:12:41.696Z,100016.09
2023-03-17T16:17:45.409Z,100010.41
2023-03-17T16:22:49.571Z,100009.41
2023-03-17T16:27:56.508Z,100000.00
2023-03-17T16:33:03.169Z,100002.56
2023-03-17T16:38:07.519Z,100014.97
2023-03-17T16:43:25.261Z,100003.44
2023-03-17T16:48:30.040Z,100005.34
2023-03-17T16:53:33.535Z,100012.66
2023-03-17T16:58:38.512Z,100017.22
2023-03-17T17:03:42.288Z,100018.41
2023-03-17T17:08:47.022Z,100024.44
2023-03-17T17:13:52.125Z,100015.16
2023-03-17T17:18:56.247Z,100022.69
2023-03-17T17:24:00.022Z,100026.97
2023-03-17T17:29:04.885Z,100032.09
2023-03-17T17:34:08.285Z,100039.34
2023-03-17T17:39:11.846Z,100049.81
2023-03-17T17:44:16.589Z,100057.78
2023-03-17T17:49:21.091Z,100070.38
2023-03-17T17:54:24.553Z,100066.97
2023-03-17T17:59:29.383Z,100073.66
2023-03-17T18:04:32.856Z,100070.50
2023-03-17T18:09:46.372Z,100075.00
2023-03-17T18:15:09.261Z,100068.88
2023-03-17T18:20:15.351Z,100070.13
2023-03-17T18:25:20.246Z,100061.22
2023-03-17T18:30:27.757Z,100035.81
2023-03-17T18:35:32.334Z,100048.44
2023-03-17T18:40:36.222Z,100043.31
2023-03-17T18:45:42.351Z,100035.03
2023-03-17T18:50:49.158Z,100031.94
2023-03-17T18:55:52.800Z,100041.97
2023-03-17T19:01:01.938Z,100051.13
2023-03-17T19:06:10.880Z,100066.09
2023-03-17T19:11:15.418Z,100046.41
2023-03-17T19:16:20.649Z,100047.16
2023-03-17T19:21:24.602Z,100036.09
2023-03-17T19:26:28.513Z,100033.25
2023-03-17T19:31:33.315Z,100036.16
2023-03-17T19:36:37.805Z,100031.38
2023-03-17T19:41:41.659Z,100013.69
2023-03-17T19:46:46.469Z,100014.81
2023-03-17T19:51:50.016Z,100020.09
2023-03-17T19:56:53.517Z,100024.97
2023-03-17T20:01:58.633Z,100030.50
2023-03-17T20:07:02.131Z,100025.09
2023-03-17T20:12:06.061Z,100029.53
2023-03-17T20:17:11.979Z,100047.13
2023-03-17T20:22:15.854Z,100061.13
2023-03-17T20:27:19.668Z,100060.69
2023-03-17T20:32:24.398Z,100059.81
2023-03-17T20:37:27.936Z,100052.13
2023-03-17T20:42:31.319Z,100056.81
2023-03-17T20:47:36.112Z,100062.50
2023-03-17T20:52:40.979Z,100074.22
2023-03-17T20:57:47.438Z,100074.34
2023-03-17T21:02:52.274Z,100080.88
2023-03-17T21:07:56.597Z,100077.91
2023-03-17T21:13:00.421Z,100074.88
2023-03-17T21:18:05.818Z,100070.53
2023-03-17T21:23:09.875Z,100062.16
2023-03-17T21:28:13.595Z,100055.50
2023-03-17T21:33:18.407Z,100058.44
2023-03-17T21:38:21.952Z,100058.44
2023-03-17T21:43:25.785Z,100061.78
2023-03-17T21:48:30.976Z,100063.13
2023-03-17T21:53:34.404Z,100078.50
2023-03-17T21:58:37.805Z,100073.50
2023-03-17T22:03:43.133Z,100062.44
2023-03-17T22:08:48.021Z,100059.28
2023-03-17T22:13:51.449Z,100059.41
2023-03-17T22:18:56.421Z,100075.38
2023-03-17T22:23:59.854Z,100077.00
2023-03-17T22:29:03.783Z,100078.38
2023-03-17T22:34:09.835Z,100079.22
2023-03-17T22:39:13.319Z,100088.81
2023-03-17T22:44:16.711Z,100073.69
2023-03-17T22:49:21.842Z,100084.44
2023-03-17T22:54:25.296Z,100089.75
2023-03-17T22:59:28.718Z,100101.78
2023-03-17T23:04:33.875Z,100090.75
2023-03-17T23:09:38.452Z,100090.94
2023-03-17T23:14:41.891Z,100078.00
2023-03-17T23:19:46.792Z,100077.16
2023-03-17T23:24:50.648Z,100077.25
2023-03-17T23:29:54.055Z,100081.44
2023-03-17T23:34:59.583Z,100086.78
2023-03-17T23:40:03.417Z,100083.06
2023-03-17T23:45:08.510Z,100086.41
2023-03-17T23:50:14.378Z,100093.75
2023-03-17T23:55:18.653Z,100091.13
